Iris Victoria — V7TS8 — position and weather

sailwx.info

Track history (hours):
 
Tides and Currents Weather Stations Pressure Air Temp Water Temp Dewpoint Dewpoint Depression Visibility Wind Speed Wind Dir Waves Ship Positions

Iris Victoria

Last reported at 2016-Aug-12 16:24 UTC. Time now 2016-Aug-24 11:59 UTC.
Position S 29°33' E 031°47'.
Warning: this ship's position is 11 days out of date.

Length 228 m; draft 8 m.

Type: Tanker. MMSI: 538003876.

Date/timePositionNaut miles runAvg speedWind from/ knotsBaromVisibWave heightAir tempDewpointWater temp
2016-Aug-12 16:24S 29°33' E 031°47'  
2016-Aug-09 23:29S 34°22' E 018°07'2712.7
2016-Aug-09 21:22S 33°58' E 017°53'1113.3
2016-Aug-09 20:33S 33°48' E 017°47'1312.9
2016-Aug-09 19:33S 33°36' E 017°40'1313.2
2016-Aug-09 18:32S 33°24' E 017°34'1313.1
2016-Aug-09 17:33S 33°12' E 017°29'1313.0
2016-Aug-09 16:32S 32°60' E 017°23'1613.2
2016-Aug-09 15:18S 32°45' E 017°15'  
Track history (hours):
 
Tides and Currents Weather Stations Pressure Air Temp Water Temp Dewpoint Dewpoint Depression Visibility Wind Speed Wind Dir Waves Ship Positions

Iris Victoria

Last reported at 2016-Aug-12 16:24 UTC. Time now 2016-Aug-24 11:59 UTC.
Position S 29°33' E 031°47'.
Warning: this ship's position is 11 days out of date.

Length 228 m; draft 8 m.

Type: Tanker. MMSI: 538003876.

Date/timePositionNaut miles runAvg speedWind from/ knotsBaromVisibWave heightAir tempDewpointWater temp
2016-Aug-12 16:24S 29°33' E 031°47'  
2016-Aug-09 23:29S 34°22' E 018°07'2712.7
2016-Aug-09 21:22S 33°58' E 017°53'1113.3
2016-Aug-09 20:33S 33°48' E 017°47'1312.9
2016-Aug-09 19:33S 33°36' E 017°40'1313.2
2016-Aug-09 18:32S 33°24' E 017°34'1313.1
2016-Aug-09 17:33S 33°12' E 017°29'1313.0
2016-Aug-09 16:32S 32°60' E 017°23'1613.2
2016-Aug-09 15:18S 32°45' E 017°15'  

Dump ship's entire track history